Aérodrome :







RETROUVEZ-NOUS SUR...

 
LOGIN :

S'inscrire | Disclaimer

   EN    FR    IT 

 









Légende :    VFR   VFR Marginal   IFR   IFR Intensif   IFR Très Intensif
Visi : 
Plafond : 
>= 8 km
>= 3000ft
5 à 8 km
1000 à 3000 ft
1500m à 5 km
500 à 1000 ft
800 à 1500m
200 à 500 ft
< 800m
< 200 ft
Symboles :   Orages  Brouillard  Fortes neiges  Fortes précipitations  Vent > 20 kt






- Altitude de l'aérodrome : 1005 ft
- Code IATA : YAH


CYAH - La Grande-4

DERNIER METAR :
  • 241800Z AUTO 07009G15KT 9SM -SN OVC031 M08/M13 A2962 RMK SLP062

METARs EXPIRÉS :
  • 241700Z AUTO 07009KT 9SM -SN BKN027 OVC038 M09/M13 A2963 RMK SLP067
  • 241653Z AUTO 06010KT 9SM -SN BKN027 OVC049 M09/M14 A2963 RMK SLP067
  • 241630Z AUTO 06011KT 9SM FEW027 BKN033 BKN047 M10/M14 A2964 RMK SLP069
  • 241609Z AUTO 06010KT 6SM -SN BKN033 OVC043 M11/M14 A2964 RMK SLP072
  • 241545Z AUTO 05009KT 3SM -SN BKN033 OVC045 M12/M15 A2964 RMK SLP072
  • 241530Z AUTO 05007KT 2 1/4SM -SN OVC034 M12/M15 A2965 RMK SLP073

TAF TAF CYAH
Valide du 24 à 18h jusqu'au 24 à 22h UTC


241738Z 2418/2422 07010KT P6SM BKN025
TEMPO 2418/2422 5SM -SN BKN020 RMK FCST BASED ON AUTO OBS. NXT FCST WILL BE ISSUED AT 251145Z



MET'MAP, la Météo Aéronautique d'un coup d'oeil ! - Copyright ORBIFLY Décembre 2007 - Disclaimer

ORBIFLY MET'MAP TEAM :

Programmation & Développement : Alexandra Zaïnal
Sur une idée originale de : Baudouin d'Aumeries
Assistance à la programmation : Marc-Olivier Méhu
Soutien technique & logistique : Manuel Goepfert

Contact : metmap@orbifly.com




SOURCES & CREDITS :

   NOAA